createdAt,value
2022-09-12T00:01:54.091Z,8.40
2022-09-12T00:04:21.510Z,8.52
2022-09-12T00:06:48.443Z,8.35
2022-09-12T00:09:15.176Z,9.38
2022-09-12T00:11:44.573Z,7.93
2022-09-12T00:14:12.988Z,7.63
2022-09-12T00:16:40.633Z,8.65
2022-09-12T00:19:08.221Z,8.40
2022-09-12T00:21:35.834Z,8.50
2022-09-12T00:24:02.763Z,8.32
2022-09-12T00:26:30.871Z,9.85
2022-09-12T00:28:57.699Z,9.38
2022-09-12T00:31:25.964Z,8.93
2022-09-12T00:33:53.692Z,7.55
2022-09-12T00:36:21.922Z,6.03
2022-09-12T00:38:49.096Z,5.30
2022-09-12T00:41:20.732Z,5.65
2022-09-12T00:43:49.518Z,4.68
2022-09-12T00:46:28.907Z,5.15
2022-09-12T00:48:58.242Z,4.78
2022-09-12T00:51:25.077Z,5.30
2022-09-12T00:53:53.981Z,5.50
2022-09-12T00:56:22.202Z,5.60
2022-09-12T00:59:02.834Z,5.30
2022-09-12T01:01:32.611Z,5.30
2022-09-12T01:03:59.982Z,5.32
2022-09-12T01:06:37.600Z,5.82
2022-09-12T01:09:05.279Z,5.25
2022-09-12T01:11:34.306Z,6.25
2022-09-12T01:14:02.026Z,6.43
2022-09-12T01:16:28.772Z,7.38
2022-09-12T01:18:58.888Z,8.23
2022-09-12T01:21:39.410Z,6.80
2022-09-12T01:24:15.761Z,8.88
2022-09-12T01:26:58.828Z,7.95
2022-09-12T01:29:25.922Z,7.28
2022-09-12T01:32:04.543Z,8.00
2022-09-12T01:34:51.753Z,7.85
2022-09-12T01:37:28.612Z,9.82
2022-09-12T01:40:01.535Z,8.52
2022-09-12T01:42:35.222Z,8.57
2022-09-12T01:45:03.417Z,6.57
2022-09-12T01:47:44.270Z,6.32
2022-09-12T01:50:15.222Z,6.35
2022-09-12T01:52:51.908Z,6.80
2022-09-12T01:55:22.778Z,6.70
2022-09-12T01:57:54.334Z,6.47
2022-09-12T02:00:21.117Z,6.55
2022-09-12T02:02:58.996Z,7.25
2022-09-12T02:05:29.604Z,6.93
2022-09-12T02:08:03.253Z,6.25
2022-09-12T02:10:32.645Z,6.30
2022-09-12T02:13:18.152Z,5.90
2022-09-12T02:15:48.848Z,7.75
2022-09-12T02:18:18.505Z,8.63
2022-09-12T02:20:48.732Z,8.70
2022-09-12T02:23:18.753Z,9.25
2022-09-12T02:25:46.691Z,9.20
2022-09-12T02:28:22.307Z,11.23
2022-09-12T02:31:12.356Z,9.40
2022-09-12T02:33:44.890Z,9.65
2022-09-12T02:36:31.929Z,10.88
2022-09-12T02:38:58.932Z,10.40
2022-09-12T02:41:25.795Z,9.30
2022-09-12T02:43:53.048Z,8.32
2022-09-12T02:46:25.790Z,8.65
2022-09-12T02:48:53.209Z,9.20
2022-09-12T02:51:23.628Z,8.80
2022-09-12T02:53:50.852Z,8.27
2022-09-12T02:56:20.238Z,8.45
2022-09-12T02:58:47.886Z,7.25
2022-09-12T03:01:20.443Z,7.07
2022-09-12T03:04:13.496Z,5.78
2022-09-12T03:06:49.025Z,5.93
2022-09-12T03:09:15.789Z,6.10
2022-09-12T03:11:57.910Z,7.05
2022-09-12T03:14:35.922Z,5.68
2022-09-12T03:17:02.624Z,6.03
2022-09-12T03:19:33.789Z,6.50
2022-09-12T03:22:09.128Z,6.30
2022-09-12T03:24:39.776Z,7.05
2022-09-12T03:27:09.713Z,7.47
2022-09-12T03:29:37.561Z,7.35
2022-09-12T03:32:04.369Z,6.88
2022-09-12T03:34:31.141Z,6.35
2022-09-12T03:36:58.342Z,7.00
2022-09-12T03:39:26.988Z,7.65
2022-09-12T03:41:54.769Z,7.40
2022-09-12T03:44:21.869Z,6.72
2022-09-12T03:46:48.666Z,7.03
2022-09-12T03:49:15.517Z,9.23
2022-09-12T03:51:43.206Z,8.98
2022-09-12T03:54:10.430Z,8.00
2022-09-12T03:56:37.589Z,8.40
2022-09-12T03:59:07.552Z,8.25
2022-09-12T04:01:34.474Z,7.22
2022-09-12T04:04:01.503Z,9.23
2022-09-12T04:06:28.257Z,8.10
2022-09-12T04:08:55.508Z,9.48
2022-09-12T04:11:22.733Z,10.27
2022-09-12T04:13:50.051Z,10.10
2022-09-12T04:16:17.768Z,10.10
2022-09-12T04:18:44.927Z,10.00
2022-09-12T04:21:13.649Z,10.07
2022-09-12T04:23:40.517Z,9.35
2022-09-12T04:26:07.276Z,10.40
2022-09-12T04:28:35.208Z,10.73
2022-09-12T04:31:06.181Z,10.60
2022-09-12T04:33:33.434Z,11.38
2022-09-12T04:36:04.373Z,10.43
2022-09-12T04:38:31.211Z,10.63
2022-09-12T04:40:58.037Z,10.93
2022-09-12T04:43:24.832Z,10.57
2022-09-12T04:45:52.100Z,11.18
2022-09-12T04:48:18.950Z,10.95
2022-09-12T04:50:45.799Z,10.68
2022-09-12T04:53:12.532Z,10.43
2022-09-12T04:55:39.351Z,11.02
2022-09-12T04:58:06.041Z,11.65
2022-09-12T05:00:33.371Z,11.70
2022-09-12T05:03:00.390Z,11.38
2022-09-12T05:05:27.117Z,10.20
2022-09-12T05:07:53.923Z,11.23
2022-09-12T05:10:20.651Z,10.52
2022-09-12T05:12:48.471Z,10.93
2022-09-12T05:15:15.314Z,11.18
2022-09-12T05:17:42.054Z,10.15
2022-09-12T05:20:09.655Z,9.88
2022-09-12T05:22:36.365Z,10.68
2022-09-12T05:25:03.212Z,9.73
2022-09-12T05:27:30.075Z,10.52
2022-09-12T05:29:56.978Z,9.50
2022-09-12T05:32:23.773Z,9.98
2022-09-12T05:34:51.038Z,8.68
2022-09-12T05:37:17.806Z,9.23
2022-09-12T05:39:44.640Z,7.88
2022-09-12T05:42:12.029Z,8.45
2022-09-12T05:44:38.772Z,8.15
2022-09-12T05:47:05.635Z,8.63
2022-09-12T05:49:32.384Z,8.85
2022-09-12T05:51:59.117Z,8.90
2022-09-12T05:54:30.839Z,7.63
2022-09-12T05:56:58.402Z,8.40
2022-09-12T05:59:25.273Z,12.65
2022-09-12T06:01:52.529Z,9.43
2022-09-12T06:04:19.463Z,10.63
2022-09-12T06:06:46.470Z,10.32
2022-09-12T06:09:15.074Z,9.82
2022-09-12T06:11:42.560Z,8.35
2022-09-12T06:14:10.303Z,17.75
2022-09-12T06:16:38.051Z,8.32
2022-09-12T06:19:07.078Z,8.10
2022-09-12T06:21:37.977Z,7.68
2022-09-12T06:24:04.755Z,8.00
2022-09-12T06:26:31.625Z,8.60
2022-09-12T06:28:59.901Z,7.90
2022-09-12T06:31:30.697Z,8.90
2022-09-12T06:33:59.513Z,8.57
2022-09-12T06:36:28.080Z,8.77
2022-09-12T06:39:02.097Z,10.50
2022-09-12T06:41:29.669Z,9.52
2022-09-12T06:43:56.689Z,8.38
2022-09-12T06:46:23.555Z,9.93
2022-09-12T06:48:50.703Z,8.82
2022-09-12T06:51:18.414Z,8.57
2022-09-12T06:53:45.503Z,11.23
2022-09-12T06:56:16.865Z,7.95
2022-09-12T06:58:43.988Z,8.60
2022-09-12T07:01:15.557Z,9.02
2022-09-12T07:03:43.246Z,7.05
2022-09-12T07:06:13.295Z,7.47
2022-09-12T07:08:41.140Z,5.78
2022-09-12T07:11:11.246Z,6.75
2022-09-12T07:13:38.545Z,4.80
2022-09-12T07:16:05.802Z,5.47
2022-09-12T07:18:35.720Z,6.30
2022-09-12T07:21:02.996Z,5.07
2022-09-12T07:23:30.237Z,6.55
2022-09-12T07:25:57.956Z,5.57
2022-09-12T07:28:25.237Z,5.53
2022-09-12T07:30:54.020Z,5.20
2022-09-12T07:33:21.868Z,6.50
2022-09-12T07:35:49.694Z,4.65
2022-09-12T07:38:16.943Z,4.63
2022-09-12T07:40:44.008Z,6.30
2022-09-12T07:43:10.774Z,4.85
2022-09-12T07:45:37.697Z,4.10
2022-09-12T07:48:04.616Z,5.10
2022-09-12T07:50:31.436Z,3.70
2022-09-12T07:52:58.216Z,4.80
2022-09-12T07:55:25.231Z,3.90
2022-09-12T07:57:52.240Z,4.38
2022-09-12T08:00:19.383Z,5.35
2022-09-12T08:02:50.695Z,4.60
2022-09-12T08:05:17.541Z,3.97
2022-09-12T08:07:44.317Z,4.28
2022-09-12T08:10:11.152Z,4.50
2022-09-12T08:12:38.137Z,4.55
2022-09-12T08:15:05.124Z,4.25
2022-09-12T08:17:31.934Z,5.78
2022-09-12T08:20:00.391Z,4.97
2022-09-12T08:22:27.308Z,4.97
2022-09-12T08:24:54.099Z,4.10
2022-09-12T08:27:20.965Z,4.07
2022-09-12T08:29:47.837Z,4.03
2022-09-12T08:32:14.603Z,4.60
2022-09-12T08:34:41.330Z,3.90
2022-09-12T08:37:08.160Z,3.95
2022-09-12T08:39:34.995Z,4.82
2022-09-12T08:42:03.378Z,3.67
2022-09-12T08:44:39.819Z,4.43
2022-09-12T08:47:18.716Z,3.95
2022-09-12T08:49:45.581Z,5.80
2022-09-12T08:52:14.708Z,5.20
2022-09-12T08:54:43.098Z,4.88
2022-09-12T08:57:11.799Z,5.20
2022-09-12T08:59:40.219Z,5.97
2022-09-12T09:02:26.058Z,4.07
2022-09-12T09:05:12.555Z,4.65
2022-09-12T09:07:39.346Z,5.57
2022-09-12T09:10:14.166Z,4.80
2022-09-12T09:12:51.177Z,4.38
2022-09-12T09:15:25.081Z,4.47
2022-09-12T09:18:04.359Z,4.40
2022-09-12T09:20:39.539Z,4.40
2022-09-12T09:23:16.140Z,3.75
2022-09-12T09:25:49.987Z,3.78
2022-09-12T09:28:16.800Z,4.35
2022-09-12T09:30:44.892Z,4.47
2022-09-12T09:33:26.275Z,3.90
2022-09-12T09:36:15.857Z,4.20
2022-09-12T09:38:48.253Z,4.78
2022-09-12T09:41:15.210Z,4.60
2022-09-12T09:43:42.042Z,3.92
2022-09-12T09:46:08.958Z,3.60
2022-09-12T09:48:41.965Z,3.58
2022-09-12T09:51:09.470Z,4.07
2022-09-12T09:53:42.614Z,4.53
2022-09-12T09:56:11.991Z,4.00
2022-09-12T09:58:39.531Z,4.60
2022-09-12T10:01:12.272Z,3.40
2022-09-12T10:03:39.803Z,3.22
2022-09-12T10:06:08.360Z,3.95
2022-09-12T10:08:36.636Z,3.40
2022-09-12T10:11:05.557Z,2.97
2022-09-12T10:13:41.497Z,2.63
2022-09-12T10:16:21.076Z,3.75
2022-09-12T10:18:49.440Z,3.60
2022-09-12T10:21:31.398Z,3.85
2022-09-12T10:24:18.737Z,4.90
2022-09-12T10:26:51.396Z,3.03
2022-09-12T10:29:24.094Z,3.67
2022-09-12T10:31:56.381Z,3.42
2022-09-12T10:34:25.625Z,3.50
2022-09-12T10:36:54.249Z,3.88
2022-09-12T10:39:22.174Z,4.63
2022-09-12T10:41:49.082Z,3.10
2022-09-12T10:44:26.545Z,4.07
2022-09-12T10:46:54.569Z,3.20
2022-09-12T10:49:22.938Z,3.03
2022-09-12T10:51:50.789Z,3.55
2022-09-12T10:54:19.144Z,3.53
2022-09-12T10:56:52.915Z,3.78
2022-09-12T10:59:38.489Z,2.45
2022-09-12T11:02:24.814Z,3.00
2022-09-12T11:05:11.910Z,2.60
2022-09-12T11:07:50.043Z,2.90
2022-09-12T11:10:45.511Z,2.45
2022-09-12T11:13:31.024Z,3.38
2022-09-12T11:16:00.623Z,2.78
2022-09-12T11:18:30.328Z,2.80
2022-09-12T11:21:03.530Z,2.83
2022-09-12T11:23:36.132Z,3.15
2022-09-12T11:26:23.066Z,2.92
2022-09-12T11:28:56.376Z,3.33
2022-09-12T11:31:35.830Z,3.50
2022-09-12T11:34:09.184Z,2.92
2022-09-12T11:36:48.668Z,2.75
2022-09-12T11:39:32.153Z,2.47
2022-09-12T11:42:01.800Z,2.80
2022-09-12T11:44:32.614Z,3.50
2022-09-12T11:47:00.954Z,2.85
2022-09-12T11:49:58.938Z,3.17
2022-09-12T11:52:29.528Z,2.92
2022-09-12T11:55:05.471Z,3.63
2022-09-12T11:57:45.858Z,3.08
2022-09-12T12:00:12.856Z,2.80
2022-09-12T12:02:42.553Z,5.07
2022-09-12T12:05:26.407Z,3.67
2022-09-12T12:07:54.788Z,15.23
2022-09-12T12:10:31.257Z,20.73
2022-09-12T12:12:59.319Z,6.82
2022-09-12T12:15:27.186Z,6.80
2022-09-12T12:18:14.806Z,5.78
2022-09-12T12:20:43.389Z,10.07
2022-09-12T12:23:42.783Z,22.27
2022-09-12T12:26:32.267Z,7.53
2022-09-12T12:29:00.153Z,6.78
2022-09-12T12:31:27.529Z,3.13
2022-09-12T12:33:56.039Z,13.32
2022-09-12T12:36:40.523Z,3.92
2022-09-12T12:39:26.522Z,12.52
2022-09-12T12:41:53.424Z,15.40
2022-09-12T12:44:38.972Z,13.80
2022-09-12T12:47:29.499Z,15.32
2022-09-12T12:50:23.734Z,6.10
2022-09-12T12:53:00.833Z,2.83
2022-09-12T12:55:37.871Z,7.15
2022-09-12T12:58:27.876Z,12.20
2022-09-12T13:01:07.299Z,8.95
2022-09-12T13:03:34.655Z,14.07
2022-09-12T13:06:03.357Z,3.13
2022-09-12T13:08:31.909Z,5.40
2022-09-12T13:11:03.240Z,4.55
2022-09-12T13:13:33.116Z,18.30
2022-09-12T13:16:00.076Z,13.32
2022-09-12T13:18:28.711Z,17.13
2022-09-12T13:21:24.700Z,6.25
2022-09-12T13:24:02.310Z,1.85
2022-09-12T13:26:33.198Z,2.28
2022-09-12T13:29:10.290Z,1.55
2022-09-12T13:31:37.617Z,2.28
2022-09-12T13:34:06.578Z,2.40
2022-09-12T13:36:52.037Z,2.15
2022-09-12T13:39:24.763Z,1.88
2022-09-12T13:42:10.339Z,2.42
2022-09-12T13:44:41.525Z,3.80
2022-09-12T13:47:10.672Z,2.13
2022-09-12T13:49:38.636Z,2.78
2022-09-12T13:52:10.080Z,2.13
2022-09-12T13:54:39.063Z,2.00
2022-09-12T13:57:06.234Z,2.00
2022-09-12T13:59:40.128Z,2.17
2022-09-12T14:02:20.407Z,2.72
2022-09-12T14:05:07.140Z,2.75
2022-09-12T14:07:35.686Z,1.90
2022-09-12T14:10:05.001Z,2.10
2022-09-12T14:12:38.097Z,2.15
2022-09-12T14:15:05.749Z,1.48
2022-09-12T14:17:32.967Z,1.58
2022-09-12T14:20:06.118Z,3.40
2022-09-12T14:22:34.357Z,1.65
2022-09-12T14:25:01.241Z,2.30
2022-09-12T14:27:41.460Z,2.22
2022-09-12T14:30:19.295Z,2.10
2022-09-12T14:33:03.048Z,3.47
2022-09-12T14:35:30.420Z,2.30
2022-09-12T14:37:57.261Z,3.15
2022-09-12T14:40:24.373Z,2.22
2022-09-12T14:42:53.014Z,2.72
2022-09-12T14:45:22.801Z,2.83
2022-09-12T14:47:50.515Z,1.80
2022-09-12T14:50:18.967Z,1.92
2022-09-12T14:52:45.808Z,1.88
2022-09-12T14:55:16.316Z,1.80
2022-09-12T14:57:44.742Z,2.80
2022-09-12T15:00:11.703Z,2.53
2022-09-12T15:02:39.629Z,2.05
2022-09-12T15:05:09.864Z,2.33
2022-09-12T15:07:38.080Z,2.45
2022-09-12T15:10:06.768Z,2.33
2022-09-12T15:12:33.703Z,2.58
2022-09-12T15:15:04.267Z,2.70
2022-09-12T15:17:31.064Z,2.25
2022-09-12T15:19:58.009Z,2.00
2022-09-12T15:22:26.272Z,2.17
2022-09-12T15:24:53.677Z,2.90
2022-09-12T15:27:20.512Z,2.60
2022-09-12T15:29:47.380Z,2.60
2022-09-12T15:32:22.766Z,2.72
2022-09-12T15:34:49.847Z,3.28
2022-09-12T15:37:17.379Z,2.90
2022-09-12T15:39:45.890Z,2.67
2022-09-12T15:42:13.749Z,3.10
2022-09-12T15:44:40.688Z,2.58
2022-09-12T15:47:10.250Z,2.30
2022-09-12T15:49:37.059Z,2.58
2022-09-12T15:52:03.985Z,2.72
2022-09-12T15:54:30.823Z,2.50
2022-09-12T15:56:57.614Z,1.90
2022-09-12T15:59:25.572Z,2.40
2022-09-12T16:01:53.019Z,2.30
2022-09-12T16:04:24.728Z,2.10
2022-09-12T16:06:51.814Z,2.58
2022-09-12T16:09:18.688Z,2.08
2022-09-12T16:11:45.821Z,2.15
2022-09-12T16:14:17.154Z,2.10
2022-09-12T16:16:44.793Z,2.10
2022-09-12T16:19:12.711Z,1.73
2022-09-12T16:21:39.784Z,1.70
2022-09-12T16:24:06.808Z,2.30
2022-09-12T16:26:33.699Z,1.92
2022-09-12T16:29:00.687Z,2.25
2022-09-12T16:31:27.919Z,2.30
2022-09-12T16:33:56.012Z,1.83
2022-09-12T16:36:23.531Z,2.10
2022-09-12T16:38:51.900Z,1.90
2022-09-12T16:41:20.382Z,2.30
2022-09-12T16:43:47.314Z,1.88
2022-09-12T16:46:16.141Z,1.77
2022-09-12T16:48:48.054Z,2.33
2022-09-12T16:51:20.421Z,2.15
2022-09-12T16:53:47.583Z,1.60
2022-09-12T16:56:15.067Z,1.90
2022-09-12T16:58:42.273Z,2.15
2022-09-12T17:01:10.333Z,2.28
2022-09-12T17:03:37.331Z,2.80
2022-09-12T17:06:06.339Z,2.22
2022-09-12T17:08:35.376Z,2.65
2022-09-12T17:11:02.844Z,2.30
2022-09-12T17:13:52.882Z,2.00
2022-09-12T17:16:18.301Z,2.30
2022-09-12T17:18:45.336Z,1.98
2022-09-12T17:21:12.611Z,2.58
2022-09-12T17:23:39.820Z,2.10
2022-09-12T17:26:07.476Z,2.72
2022-09-12T17:28:34.549Z,2.58
2022-09-12T17:31:03.855Z,2.00
2022-09-12T17:33:30.822Z,1.73
2022-09-12T17:36:04.550Z,2.40
2022-09-12T17:38:32.808Z,2.40
2022-09-12T17:41:18.136Z,2.90
2022-09-12T17:43:51.171Z,2.75
2022-09-12T17:46:19.613Z,3.40
2022-09-12T17:48:50.947Z,2.88
2022-09-12T17:51:18.489Z,4.03
2022-09-12T17:53:45.544Z,2.58
2022-09-12T17:56:13.098Z,5.15
2022-09-12T17:58:40.194Z,3.63
2022-09-12T18:01:29.875Z,4.38
2022-09-12T18:03:57.580Z,3.90
2022-09-12T18:06:24.638Z,4.13
2022-09-12T18:08:52.546Z,4.40
2022-09-12T18:11:19.348Z,3.60
2022-09-12T18:13:46.647Z,3.60
2022-09-12T18:16:14.680Z,4.55
2022-09-12T18:18:41.879Z,3.60
2022-09-12T18:21:11.006Z,4.00
2022-09-12T18:23:38.810Z,3.58
2022-09-12T18:26:06.897Z,3.90
2022-09-12T18:28:34.510Z,4.35
2022-09-12T18:31:01.821Z,4.15
2022-09-12T18:33:28.953Z,3.53
2022-09-12T18:35:55.786Z,3.30
2022-09-12T18:38:22.637Z,3.20
2022-09-12T18:40:49.501Z,4.32
2022-09-12T18:43:16.386Z,5.13
2022-09-12T18:45:43.288Z,5.28
2022-09-12T18:48:10.436Z,4.82
2022-09-12T18:50:37.245Z,4.72
2022-09-12T18:53:04.091Z,4.30
2022-09-12T18:55:32.210Z,3.67
2022-09-12T18:57:59.100Z,4.13
2022-09-12T19:00:25.945Z,3.55
2022-09-12T19:02:52.783Z,4.75
2022-09-12T19:05:19.802Z,4.50
2022-09-12T19:07:46.681Z,3.88
2022-09-12T19:10:13.559Z,3.63
2022-09-12T19:12:40.486Z,4.13
2022-09-12T19:15:11.236Z,3.13
2022-09-12T19:17:38.144Z,3.88
2022-09-12T19:20:06.110Z,3.50
2022-09-12T19:22:32.982Z,4.10
2022-09-12T19:24:59.846Z,5.15
2022-09-12T19:27:26.659Z,4.57
2022-09-12T19:29:53.572Z,4.90
2022-09-12T19:32:20.338Z,7.35
2022-09-12T19:34:47.240Z,7.80
2022-09-12T19:37:14.036Z,11.27
2022-09-12T19:39:44.529Z,9.93
2022-09-12T19:42:11.969Z,11.18
2022-09-12T19:44:38.800Z,7.32
2022-09-12T19:47:06.210Z,9.23
2022-09-12T19:49:33.193Z,7.47
2022-09-12T19:52:00.709Z,6.53
2022-09-12T19:54:28.103Z,6.82
2022-09-12T19:56:55.300Z,6.72
2022-09-12T19:59:25.283Z,6.30
2022-09-12T20:01:52.335Z,6.28
2022-09-12T20:04:19.696Z,5.47
2022-09-12T20:06:46.453Z,6.72
2022-09-12T20:09:13.698Z,6.68
2022-09-12T20:11:40.780Z,5.75
2022-09-12T20:14:07.834Z,6.38
2022-09-12T20:16:34.737Z,6.22
2022-09-12T20:19:03.721Z,5.82
2022-09-12T20:21:32.113Z,5.47
2022-09-12T20:24:00.393Z,6.63
2022-09-12T20:26:27.455Z,6.55
2022-09-12T20:28:54.621Z,6.13
2022-09-12T20:31:21.406Z,7.07
2022-09-12T20:33:51.836Z,6.75
2022-09-12T20:36:20.306Z,6.75
2022-09-12T20:38:48.767Z,7.38
2022-09-12T20:41:16.822Z,7.60
2022-09-12T20:43:43.583Z,8.52
2022-09-12T20:46:11.251Z,8.00
2022-09-12T20:48:39.544Z,9.43
2022-09-12T20:51:07.092Z,9.68
2022-09-12T20:53:35.290Z,7.63
2022-09-12T20:56:03.912Z,6.18
2022-09-12T20:58:31.069Z,10.35
2022-09-12T21:01:20.168Z,7.55
2022-09-12T21:03:47.315Z,6.28
2022-09-12T21:06:14.719Z,7.85
2022-09-12T21:08:41.819Z,6.43
2022-09-12T21:11:09.124Z,9.32
2022-09-12T21:13:36.329Z,9.65
2022-09-12T21:16:07.943Z,8.30
2022-09-12T21:18:35.299Z,6.57
2022-09-12T21:21:02.092Z,7.18
2022-09-12T21:23:29.201Z,7.90
2022-09-12T21:25:55.825Z,8.13
2022-09-12T21:28:24.559Z,8.60
2022-09-12T21:30:51.582Z,7.40
2022-09-12T21:33:19.201Z,7.93
2022-09-12T21:35:47.089Z,8.05
2022-09-12T21:38:18.181Z,8.05
2022-09-12T21:40:45.359Z,8.57
2022-09-12T21:43:13.180Z,8.48
2022-09-12T21:45:41.046Z,8.80
2022-09-12T21:48:07.980Z,9.98
2022-09-12T21:50:34.718Z,8.70
2022-09-12T21:53:01.381Z,7.45
2022-09-12T21:55:28.103Z,8.23
2022-09-12T21:57:55.316Z,8.73
2022-09-12T22:00:22.118Z,7.47
2022-09-12T22:02:48.917Z,6.90
2022-09-12T22:05:15.821Z,7.10
2022-09-12T22:07:42.551Z,9.70
2022-09-12T22:10:10.049Z,9.30
2022-09-12T22:12:36.716Z,10.15
2022-09-12T22:15:22.999Z,9.50
2022-09-12T22:17:50.903Z,10.07
2022-09-12T22:20:17.660Z,8.77
2022-09-12T22:23:03.481Z,8.10
2022-09-12T22:25:30.738Z,6.15
2022-09-12T22:27:58.325Z,7.35
2022-09-12T22:30:27.571Z,7.75
2022-09-12T22:32:54.212Z,7.50
2022-09-12T22:35:21.343Z,7.53
2022-09-12T22:37:48.561Z,8.48
2022-09-12T22:40:15.901Z,8.13
2022-09-12T22:42:42.787Z,8.40
2022-09-12T22:45:10.299Z,7.90
2022-09-12T22:47:37.050Z,7.30
2022-09-12T22:50:04.452Z,9.02
2022-09-12T22:52:31.909Z,7.43
2022-09-12T22:54:59.269Z,7.47
2022-09-12T22:57:26.002Z,7.72
2022-09-12T22:59:54.150Z,7.90
2022-09-12T23:02:20.877Z,7.68
2022-09-12T23:04:48.714Z,6.90
2022-09-12T23:07:16.021Z,6.43
2022-09-12T23:09:43.419Z,6.32
2022-09-12T23:12:10.172Z,6.70
2022-09-12T23:14:37.817Z,6.63
2022-09-12T23:17:04.582Z,6.35
2022-09-12T23:19:31.770Z,5.50
2022-09-12T23:21:58.843Z,5.85
2022-09-12T23:24:27.246Z,5.95
2022-09-12T23:26:54.011Z,6.03
2022-09-12T23:29:21.381Z,6.55
2022-09-12T23:31:48.750Z,5.38
2022-09-12T23:34:15.850Z,5.40
2022-09-12T23:36:42.858Z,6.22
2022-09-12T23:39:10.225Z,5.60
2022-09-12T23:41:37.038Z,5.70
2022-09-12T23:44:04.865Z,6.28
2022-09-12T23:46:31.692Z,5.65
2022-09-12T23:48:58.752Z,5.90
2022-09-12T23:51:25.740Z,4.90
2022-09-12T23:53:52.748Z,5.28
2022-09-12T23:56:19.732Z,5.40
2022-09-12T23:58:47.315Z,4.90
